Terminal Aerodrome Forecast
Issued by NWS

Home | Current Version | Previous Version | Text Only | Print | Product List | Glossary On
Versions: 1 2 3 4 5 6 7 8 9 10 11 12 13 14 15 16 17 18 19 20 21 22 23 24 25 26 27 28
000
FTUS42 KTBW 221140
TAFPIE
TAF
KPIE 221140Z 2212/2312 08008KT P6SM FEW020 SCT120
     FM221800 08009G14KT P6SM VCTS SCT030CB BKN120
     FM230000 08010KT P6SM SCT030 BKN120
     FM230600 09007KT P6SM FEW030 SCT120=

USA.gov is the U.S. government's official web portal to all federal, state and local government web resources and services.